sensor_id;sensor_type;location;lat;lon;timestamp;temperature;humidity
10296;DHT22;5193;51.032;6.356;2022-10-16T00:01:24;12.70;99.90
10296;DHT22;5193;51.032;6.356;2022-10-16T00:03:50;12.70;99.90
10296;DHT22;5193;51.032;6.356;2022-10-16T00:06:17;12.70;99.90
10296;DHT22;5193;51.032;6.356;2022-10-16T00:08:44;12.70;99.90
10296;DHT22;5193;51.032;6.356;2022-10-16T00:11:16;12.70;99.90
10296;DHT22;5193;51.032;6.356;2022-10-16T00:13:43;12.70;99.90
10296;DHT22;5193;51.032;6.356;2022-10-16T00:16:10;12.70;99.90
10296;DHT22;5193;51.032;6.356;2022-10-16T00:18:36;12.70;99.90
10296;DHT22;5193;51.032;6.356;2022-10-16T00:21:16;12.70;99.90
10296;DHT22;5193;51.032;6.356;2022-10-16T00:23:42;12.70;99.90
10296;DHT22;5193;51.032;6.356;2022-10-16T00:26:12;12.70;99.90
10296;DHT22;5193;51.032;6.356;2022-10-16T00:28:38;12.80;99.90
10296;DHT22;5193;51.032;6.356;2022-10-16T00:31:09;12.70;99.90
10296;DHT22;5193;51.032;6.356;2022-10-16T00:33:35;12.70;99.90
10296;DHT22;5193;51.032;6.356;2022-10-16T00:36:03;12.80;99.90
10296;DHT22;5193;51.032;6.356;2022-10-16T00:38:29;12.70;99.90
10296;DHT22;5193;51.032;6.356;2022-10-16T00:40:54;12.70;99.90
10296;DHT22;5193;51.032;6.356;2022-10-16T00:43:40;12.70;99.90
10296;DHT22;5193;51.032;6.356;2022-10-16T00:46:28;12.70;99.90
10296;DHT22;5193;51.032;6.356;2022-10-16T00:48:56;12.70;99.90
10296;DHT22;5193;51.032;6.356;2022-10-16T00:51:28;12.60;99.90
10296;DHT22;5193;51.032;6.356;2022-10-16T00:53:55;12.60;99.90
10296;DHT22;5193;51.032;6.356;2022-10-16T00:56:21;12.50;99.90
10296;DHT22;5193;51.032;6.356;2022-10-16T00:58:47;12.60;99.90
10296;DHT22;5193;51.032;6.356;2022-10-16T01:01:12;12.50;99.90
10296;DHT22;5193;51.032;6.356;2022-10-16T01:03:38;12.40;99.90
10296;DHT22;5193;51.032;6.356;2022-10-16T01:11:49;12.40;99.90
10296;DHT22;5193;51.032;6.356;2022-10-16T01:17:08;12.30;99.90
10296;DHT22;5193;51.032;6.356;2022-10-16T01:19:50;12.30;99.90
10296;DHT22;5193;51.032;6.356;2022-10-16T01:22:20;12.30;99.90
10296;DHT22;5193;51.032;6.356;2022-10-16T01:24:49;12.30;99.90
10296;DHT22;5193;51.032;6.356;2022-10-16T01:27:27;12.30;99.90
10296;DHT22;5193;51.032;6.356;2022-10-16T01:32:41;12.30;99.90
10296;DHT22;5193;51.032;6.356;2022-10-16T01:35:32;12.30;99.90
10296;DHT22;5193;51.032;6.356;2022-10-16T01:38:17;12.30;99.90
10296;DHT22;5193;51.032;6.356;2022-10-16T01:40:51;12.30;99.90
10296;DHT22;5193;51.032;6.356;2022-10-16T01:43:26;12.30;99.90
10296;DHT22;5193;51.032;6.356;2022-10-16T01:45:52;12.30;99.90
10296;DHT22;5193;51.032;6.356;2022-10-16T01:48:19;12.30;99.90
10296;DHT22;5193;51.032;6.356;2022-10-16T01:50:55;12.30;99.90
10296;DHT22;5193;51.032;6.356;2022-10-16T01:53:22;12.30;99.90
10296;DHT22;5193;51.032;6.356;2022-10-16T01:55:50;12.30;99.90
10296;DHT22;5193;51.032;6.356;2022-10-16T01:58:17;12.30;99.90
10296;DHT22;5193;51.032;6.356;2022-10-16T02:00:45;12.30;99.90
10296;DHT22;5193;51.032;6.356;2022-10-16T02:03:13;12.30;99.90
10296;DHT22;5193;51.032;6.356;2022-10-16T02:05:50;12.30;99.90
10296;DHT22;5193;51.032;6.356;2022-10-16T02:08:17;12.40;99.90
10296;DHT22;5193;51.032;6.356;2022-10-16T02:10:42;12.40;99.90
10296;DHT22;5193;51.032;6.356;2022-10-16T02:13:45;12.40;99.90
10296;DHT22;5193;51.032;6.356;2022-10-16T02:16:13;12.50;99.90
10296;DHT22;5193;51.032;6.356;2022-10-16T02:18:40;12.40;99.90
10296;DHT22;5193;51.032;6.356;2022-10-16T02:29:24;12.60;99.90
10296;DHT22;5193;51.032;6.356;2022-10-16T02:31:55;12.70;99.90
10296;DHT22;5193;51.032;6.356;2022-10-16T02:34:24;12.70;99.90
10296;DHT22;5193;51.032;6.356;2022-10-16T02:36:51;12.70;99.90
10296;DHT22;5193;51.032;6.356;2022-10-16T02:39:18;12.70;99.90
10296;DHT22;5193;51.032;6.356;2022-10-16T02:41:45;12.80;99.90
10296;DHT22;5193;51.032;6.356;2022-10-16T02:44:10;12.80;99.90
10296;DHT22;5193;51.032;6.356;2022-10-16T02:46:36;12.80;99.90
10296;DHT22;5193;51.032;6.356;2022-10-16T02:49:01;12.80;99.90
10296;DHT22;5193;51.032;6.356;2022-10-16T02:51:27;12.80;99.90
10296;DHT22;5193;51.032;6.356;2022-10-16T02:53:52;12.70;99.90
10296;DHT22;5193;51.032;6.356;2022-10-16T02:56:18;12.70;99.90
10296;DHT22;5193;51.032;6.356;2022-10-16T02:58:44;12.70;99.90
10296;DHT22;5193;51.032;6.356;2022-10-16T03:01:09;12.60;99.90
10296;DHT22;5193;51.032;6.356;2022-10-16T03:03:35;12.70;99.90
10296;DHT22;5193;51.032;6.356;2022-10-16T03:06:01;12.70;99.90
10296;DHT22;5193;51.032;6.356;2022-10-16T03:08:27;12.70;99.90
10296;DHT22;5193;51.032;6.356;2022-10-16T03:10:52;12.70;99.90
10296;DHT22;5193;51.032;6.356;2022-10-16T03:13:18;12.70;99.90
10296;DHT22;5193;51.032;6.356;2022-10-16T03:15:45;12.70;99.90
10296;DHT22;5193;51.032;6.356;2022-10-16T03:18:11;12.70;99.90
10296;DHT22;5193;51.032;6.356;2022-10-16T03:20:37;12.70;99.90
10296;DHT22;5193;51.032;6.356;2022-10-16T03:23:02;12.70;99.90
10296;DHT22;5193;51.032;6.356;2022-10-16T03:25:28;12.70;99.90
10296;DHT22;5193;51.032;6.356;2022-10-16T03:27:54;12.70;99.90
10296;DHT22;5193;51.032;6.356;2022-10-16T03:30:19;12.70;99.90
10296;DHT22;5193;51.032;6.356;2022-10-16T03:32:46;12.60;99.90
10296;DHT22;5193;51.032;6.356;2022-10-16T03:35:12;12.60;99.90
10296;DHT22;5193;51.032;6.356;2022-10-16T03:37:38;12.60;99.90
10296;DHT22;5193;51.032;6.356;2022-10-16T03:40:04;12.50;99.90
10296;DHT22;5193;51.032;6.356;2022-10-16T03:42:30;12.50;99.90
10296;DHT22;5193;51.032;6.356;2022-10-16T03:44:55;12.40;99.90
10296;DHT22;5193;51.032;6.356;2022-10-16T03:47:21;12.40;99.90
10296;DHT22;5193;51.032;6.356;2022-10-16T03:49:49;12.40;99.90
10296;DHT22;5193;51.032;6.356;2022-10-16T03:52:14;12.30;99.90
10296;DHT22;5193;51.032;6.356;2022-10-16T03:54:40;12.30;99.90
10296;DHT22;5193;51.032;6.356;2022-10-16T03:57:05;12.30;99.90
10296;DHT22;5193;51.032;6.356;2022-10-16T03:59:31;12.30;99.90
10296;DHT22;5193;51.032;6.356;2022-10-16T04:01:56;12.30;99.90
10296;DHT22;5193;51.032;6.356;2022-10-16T04:04:22;12.30;99.90
10296;DHT22;5193;51.032;6.356;2022-10-16T04:06:47;12.20;99.90
10296;DHT22;5193;51.032;6.356;2022-10-16T04:09:13;12.20;99.90
10296;DHT22;5193;51.032;6.356;2022-10-16T04:11:39;12.20;99.90
10296;DHT22;5193;51.032;6.356;2022-10-16T04:14:04;12.20;99.90
10296;DHT22;5193;51.032;6.356;2022-10-16T04:16:30;12.20;99.90
10296;DHT22;5193;51.032;6.356;2022-10-16T04:18:55;12.20;99.90
10296;DHT22;5193;51.032;6.356;2022-10-16T04:21:21;12.10;99.90
10296;DHT22;5193;51.032;6.356;2022-10-16T04:23:47;12.10;99.90
10296;DHT22;5193;51.032;6.356;2022-10-16T04:26:13;12.10;99.90
10296;DHT22;5193;51.032;6.356;2022-10-16T04:28:38;12.00;99.90
10296;DHT22;5193;51.032;6.356;2022-10-16T04:31:05;12.00;99.90
10296;DHT22;5193;51.032;6.356;2022-10-16T04:33:30;12.00;99.90
10296;DHT22;5193;51.032;6.356;2022-10-16T04:35:57;11.90;99.90
10296;DHT22;5193;51.032;6.356;2022-10-16T04:38:23;11.90;99.90
10296;DHT22;5193;51.032;6.356;2022-10-16T04:40:49;11.90;99.90
10296;DHT22;5193;51.032;6.356;2022-10-16T04:43:14;11.80;99.90
10296;DHT22;5193;51.032;6.356;2022-10-16T04:45:40;11.80;99.90
10296;DHT22;5193;51.032;6.356;2022-10-16T04:48:05;11.80;99.90
10296;DHT22;5193;51.032;6.356;2022-10-16T04:50:31;11.70;99.90
10296;DHT22;5193;51.032;6.356;2022-10-16T04:52:56;11.80;99.90
10296;DHT22;5193;51.032;6.356;2022-10-16T04:55:22;11.80;99.90
10296;DHT22;5193;51.032;6.356;2022-10-16T04:57:48;11.70;99.90
10296;DHT22;5193;51.032;6.356;2022-10-16T05:00:13;11.60;99.90
10296;DHT22;5193;51.032;6.356;2022-10-16T05:02:39;11.70;99.90
10296;DHT22;5193;51.032;6.356;2022-10-16T05:05:05;11.60;99.90
10296;DHT22;5193;51.032;6.356;2022-10-16T05:07:31;11.50;99.90
10296;DHT22;5193;51.032;6.356;2022-10-16T05:09:56;11.50;99.90
10296;DHT22;5193;51.032;6.356;2022-10-16T05:12:22;11.50;99.90
10296;DHT22;5193;51.032;6.356;2022-10-16T05:14:47;11.60;99.90
10296;DHT22;5193;51.032;6.356;2022-10-16T05:17:13;11.50;99.90
10296;DHT22;5193;51.032;6.356;2022-10-16T05:19:38;11.50;99.90
10296;DHT22;5193;51.032;6.356;2022-10-16T05:22:04;11.50;99.90
10296;DHT22;5193;51.032;6.356;2022-10-16T05:24:30;11.50;99.90
10296;DHT22;5193;51.032;6.356;2022-10-16T05:26:55;11.50;99.90
10296;DHT22;5193;51.032;6.356;2022-10-16T05:29:21;11.50;99.90
10296;DHT22;5193;51.032;6.356;2022-10-16T05:31:50;11.50;99.90
10296;DHT22;5193;51.032;6.356;2022-10-16T05:34:16;11.50;99.90
10296;DHT22;5193;51.032;6.356;2022-10-16T05:36:41;11.50;99.90
10296;DHT22;5193;51.032;6.356;2022-10-16T05:39:07;11.50;99.90
10296;DHT22;5193;51.032;6.356;2022-10-16T05:41:32;11.50;99.90
10296;DHT22;5193;51.032;6.356;2022-10-16T05:43:58;11.50;99.90
10296;DHT22;5193;51.032;6.356;2022-10-16T05:46:24;11.50;99.90
10296;DHT22;5193;51.032;6.356;2022-10-16T05:48:52;11.60;99.90
10296;DHT22;5193;51.032;6.356;2022-10-16T05:51:18;11.60;99.90
10296;DHT22;5193;51.032;6.356;2022-10-16T05:53:44;11.60;99.90
10296;DHT22;5193;51.032;6.356;2022-10-16T05:56:11;11.60;99.90
10296;DHT22;5193;51.032;6.356;2022-10-16T05:58:38;11.60;99.90
10296;DHT22;5193;51.032;6.356;2022-10-16T06:01:16;11.60;99.90
10296;DHT22;5193;51.032;6.356;2022-10-16T06:03:42;11.50;99.90
10296;DHT22;5193;51.032;6.356;2022-10-16T06:06:15;11.60;99.90
10296;DHT22;5193;51.032;6.356;2022-10-16T06:08:42;11.50;99.90
10296;DHT22;5193;51.032;6.356;2022-10-16T06:11:13;11.50;99.90
10296;DHT22;5193;51.032;6.356;2022-10-16T06:13:39;11.60;99.90
10296;DHT22;5193;51.032;6.356;2022-10-16T06:16:08;11.50;99.90
10296;DHT22;5193;51.032;6.356;2022-10-16T06:18:33;11.50;99.90
10296;DHT22;5193;51.032;6.356;2022-10-16T06:20:59;11.60;99.90
10296;DHT22;5193;51.032;6.356;2022-10-16T06:23:25;11.70;99.90
10296;DHT22;5193;51.032;6.356;2022-10-16T06:25:51;11.80;99.90
10296;DHT22;5193;51.032;6.356;2022-10-16T06:28:16;11.90;99.90
10296;DHT22;5193;51.032;6.356;2022-10-16T06:30:42;11.90;99.90
10296;DHT22;5193;51.032;6.356;2022-10-16T06:33:11;12.00;99.90
10296;DHT22;5193;51.032;6.356;2022-10-16T06:35:37;12.10;99.90
10296;DHT22;5193;51.032;6.356;2022-10-16T06:38:02;12.10;99.90
10296;DHT22;5193;51.032;6.356;2022-10-16T06:40:28;12.10;99.90
10296;DHT22;5193;51.032;6.356;2022-10-16T06:42:57;12.20;99.90
10296;DHT22;5193;51.032;6.356;2022-10-16T06:45:22;12.20;99.90
10296;DHT22;5193;51.032;6.356;2022-10-16T06:47:48;12.20;99.90
10296;DHT22;5193;51.032;6.356;2022-10-16T06:50:13;12.20;99.90
10296;DHT22;5193;51.032;6.356;2022-10-16T06:52:39;12.20;99.90
10296;DHT22;5193;51.032;6.356;2022-10-16T06:55:05;12.20;99.90
10296;DHT22;5193;51.032;6.356;2022-10-16T06:57:31;12.20;99.90
10296;DHT22;5193;51.032;6.356;2022-10-16T06:59:56;12.20;99.90
10296;DHT22;5193;51.032;6.356;2022-10-16T07:02:22;12.20;99.90
10296;DHT22;5193;51.032;6.356;2022-10-16T07:04:47;12.30;99.90
10296;DHT22;5193;51.032;6.356;2022-10-16T07:07:13;12.30;99.90
10296;DHT22;5193;51.032;6.356;2022-10-16T07:09:40;12.20;99.90
10296;DHT22;5193;51.032;6.356;2022-10-16T07:12:05;12.20;99.90
10296;DHT22;5193;51.032;6.356;2022-10-16T07:14:31;12.20;99.90
10296;DHT22;5193;51.032;6.356;2022-10-16T07:16:56;12.20;99.90
10296;DHT22;5193;51.032;6.356;2022-10-16T07:19:22;12.20;99.90
10296;DHT22;5193;51.032;6.356;2022-10-16T07:21:48;12.20;99.90
10296;DHT22;5193;51.032;6.356;2022-10-16T07:24:15;12.20;99.90
10296;DHT22;5193;51.032;6.356;2022-10-16T07:26:43;12.20;99.90
10296;DHT22;5193;51.032;6.356;2022-10-16T07:29:15;12.20;99.90
10296;DHT22;5193;51.032;6.356;2022-10-16T07:31:41;12.30;99.90
10296;DHT22;5193;51.032;6.356;2022-10-16T07:34:07;12.30;99.90
10296;DHT22;5193;51.032;6.356;2022-10-16T07:36:33;12.30;99.90
10296;DHT22;5193;51.032;6.356;2022-10-16T07:38:59;12.30;99.90
10296;DHT22;5193;51.032;6.356;2022-10-16T07:41:25;12.40;99.90
10296;DHT22;5193;51.032;6.356;2022-10-16T07:43:52;12.50;99.90
10296;DHT22;5193;51.032;6.356;2022-10-16T07:46:19;12.60;99.90
10296;DHT22;5193;51.032;6.356;2022-10-16T07:48:45;12.80;99.90
10296;DHT22;5193;51.032;6.356;2022-10-16T07:51:14;12.90;99.90
10296;DHT22;5193;51.032;6.356;2022-10-16T07:53:40;13.10;99.90
10296;DHT22;5193;51.032;6.356;2022-10-16T07:56:06;13.20;99.90
10296;DHT22;5193;51.032;6.356;2022-10-16T07:58:33;13.30;99.90
10296;DHT22;5193;51.032;6.356;2022-10-16T08:01:03;13.40;99.90
10296;DHT22;5193;51.032;6.356;2022-10-16T08:03:29;13.50;99.90
10296;DHT22;5193;51.032;6.356;2022-10-16T08:05:56;13.60;99.90
10296;DHT22;5193;51.032;6.356;2022-10-16T08:08:22;13.70;99.90
10296;DHT22;5193;51.032;6.356;2022-10-16T08:10:48;13.80;99.90
10296;DHT22;5193;51.032;6.356;2022-10-16T08:13:14;13.90;99.90
10296;DHT22;5193;51.032;6.356;2022-10-16T08:15:43;14.00;99.90
10296;DHT22;5193;51.032;6.356;2022-10-16T08:18:10;14.00;99.90
10296;DHT22;5193;51.032;6.356;2022-10-16T08:20:36;14.10;99.90
10296;DHT22;5193;51.032;6.356;2022-10-16T08:23:03;14.20;99.90
10296;DHT22;5193;51.032;6.356;2022-10-16T08:25:29;14.40;99.90
10296;DHT22;5193;51.032;6.356;2022-10-16T08:27:54;14.40;99.90
10296;DHT22;5193;51.032;6.356;2022-10-16T08:30:23;14.50;99.90
10296;DHT22;5193;51.032;6.356;2022-10-16T08:32:48;14.60;99.90
10296;DHT22;5193;51.032;6.356;2022-10-16T08:35:16;14.60;99.90
10296;DHT22;5193;51.032;6.356;2022-10-16T08:37:42;14.80;99.90
10296;DHT22;5193;51.032;6.356;2022-10-16T08:40:29;14.90;99.90
10296;DHT22;5193;51.032;6.356;2022-10-16T08:43:21;15.00;99.90
10296;DHT22;5193;51.032;6.356;2022-10-16T08:48:49;15.10;99.90
10296;DHT22;5193;51.032;6.356;2022-10-16T08:51:27;15.20;99.90
10296;DHT22;5193;51.032;6.356;2022-10-16T08:57:14;15.40;99.90
10296;DHT22;5193;51.032;6.356;2022-10-16T08:59:41;15.50;99.90
10296;DHT22;5193;51.032;6.356;2022-10-16T09:02:32;15.60;99.90
10296;DHT22;5193;51.032;6.356;2022-10-16T09:05:22;15.60;99.90
10296;DHT22;5193;51.032;6.356;2022-10-16T09:13:38;15.90;99.90
10296;DHT22;5193;51.032;6.356;2022-10-16T09:16:21;16.00;99.90
10296;DHT22;5193;51.032;6.356;2022-10-16T09:19:13;16.10;99.90
10296;DHT22;5193;51.032;6.356;2022-10-16T09:21:44;16.20;99.90
10296;DHT22;5193;51.032;6.356;2022-10-16T09:24:15;16.20;99.90
10296;DHT22;5193;51.032;6.356;2022-10-16T09:26:42;16.30;99.90
10296;DHT22;5193;51.032;6.356;2022-10-16T09:29:16;16.40;99.90
10296;DHT22;5193;51.032;6.356;2022-10-16T09:31:43;16.40;99.90
10296;DHT22;5193;51.032;6.356;2022-10-16T09:34:21;16.50;99.90
10296;DHT22;5193;51.032;6.356;2022-10-16T09:36:48;16.50;99.90
10296;DHT22;5193;51.032;6.356;2022-10-16T09:39:14;16.60;99.90
10296;DHT22;5193;51.032;6.356;2022-10-16T09:41:43;16.70;99.90
10296;DHT22;5193;51.032;6.356;2022-10-16T09:44:36;16.70;99.90
10296;DHT22;5193;51.032;6.356;2022-10-16T09:47:11;16.80;99.90
10296;DHT22;5193;51.032;6.356;2022-10-16T09:49:38;16.80;99.90
10296;DHT22;5193;51.032;6.356;2022-10-16T09:52:12;16.90;99.90
10296;DHT22;5193;51.032;6.356;2022-10-16T09:54:49;16.90;99.90
10296;DHT22;5193;51.032;6.356;2022-10-16T09:57:15;16.90;99.90
10296;DHT22;5193;51.032;6.356;2022-10-16T09:59:49;17.00;99.90
10296;DHT22;5193;51.032;6.356;2022-10-16T10:02:17;17.00;99.90
10296;DHT22;5193;51.032;6.356;2022-10-16T10:04:53;17.00;99.90
10296;DHT22;5193;51.032;6.356;2022-10-16T10:07:27;17.00;99.90
10296;DHT22;5193;51.032;6.356;2022-10-16T10:09:54;17.10;99.90
10296;DHT22;5193;51.032;6.356;2022-10-16T10:12:24;17.10;99.90
10296;DHT22;5193;51.032;6.356;2022-10-16T10:14:56;17.10;99.90
10296;DHT22;5193;51.032;6.356;2022-10-16T10:17:24;17.10;99.90
10296;DHT22;5193;51.032;6.356;2022-10-16T10:22:46;17.00;99.90
10296;DHT22;5193;51.032;6.356;2022-10-16T10:33:25;17.20;99.90
10296;DHT22;5193;51.032;6.356;2022-10-16T10:44:14;17.60;99.90
10296;DHT22;5193;51.032;6.356;2022-10-16T10:46:42;17.70;99.90
10296;DHT22;5193;51.032;6.356;2022-10-16T11:03:45;18.30;99.90
10296;DHT22;5193;51.032;6.356;2022-10-16T11:06:20;18.40;99.90
10296;DHT22;5193;51.032;6.356;2022-10-16T11:11:50;18.60;99.90
10296;DHT22;5193;51.032;6.356;2022-10-16T11:14:23;18.70;99.90
10296;DHT22;5193;51.032;6.356;2022-10-16T11:27:40;19.00;99.90
10296;DHT22;5193;51.032;6.356;2022-10-16T11:30:14;19.20;99.90
10296;DHT22;5193;51.032;6.356;2022-10-16T11:33:05;19.30;99.90
10296;DHT22;5193;51.032;6.356;2022-10-16T11:35:43;19.40;99.90
10296;DHT22;5193;51.032;6.356;2022-10-16T11:38:29;19.50;99.90
10296;DHT22;5193;51.032;6.356;2022-10-16T11:41:00;19.60;99.90
10296;DHT22;5193;51.032;6.356;2022-10-16T11:43:44;19.70;99.90
10296;DHT22;5193;51.032;6.356;2022-10-16T11:46:20;19.90;99.90
10296;DHT22;5193;51.032;6.356;2022-10-16T11:48:57;19.90;99.90
10296;DHT22;5193;51.032;6.356;2022-10-16T11:51:39;19.90;99.90
10296;DHT22;5193;51.032;6.356;2022-10-16T11:56:48;20.00;99.90
10296;DHT22;5193;51.032;6.356;2022-10-16T12:04:52;20.20;99.90
10296;DHT22;5193;51.032;6.356;2022-10-16T12:07:30;20.20;99.90
10296;DHT22;5193;51.032;6.356;2022-10-16T12:09:57;20.30;99.90
10296;DHT22;5193;51.032;6.356;2022-10-16T12:12:27;20.30;99.90
10296;DHT22;5193;51.032;6.356;2022-10-16T12:17:44;20.40;99.90
10296;DHT22;5193;51.032;6.356;2022-10-16T12:22:48;20.60;99.90
10296;DHT22;5193;51.032;6.356;2022-10-16T12:25:30;20.70;99.90
10296;DHT22;5193;51.032;6.356;2022-10-16T12:30:32;20.80;99.90
10296;DHT22;5193;51.032;6.356;2022-10-16T12:33:04;20.80;99.90
10296;DHT22;5193;51.032;6.356;2022-10-16T12:35:35;20.80;99.90
10296;DHT22;5193;51.032;6.356;2022-10-16T12:41:05;20.90;99.90
10296;DHT22;5193;51.032;6.356;2022-10-16T12:43:44;20.80;99.90
10296;DHT22;5193;51.032;6.356;2022-10-16T12:48:41;20.90;99.90
10296;DHT22;5193;51.032;6.356;2022-10-16T12:51:24;21.00;99.90
10296;DHT22;5193;51.032;6.356;2022-10-16T12:54:41;21.20;99.90
10296;DHT22;5193;51.032;6.356;2022-10-16T13:13:54;21.70;99.90
10296;DHT22;5193;51.032;6.356;2022-10-16T13:19:37;21.90;99.90
10296;DHT22;5193;51.032;6.356;2022-10-16T13:22:10;21.90;99.90
10296;DHT22;5193;51.032;6.356;2022-10-16T13:25:21;21.90;99.90
10296;DHT22;5193;51.032;6.356;2022-10-16T13:28:01;21.90;99.90
10296;DHT22;5193;51.032;6.356;2022-10-16T13:30:34;22.00;99.90
10296;DHT22;5193;51.032;6.356;2022-10-16T13:33:04;22.00;99.90
10296;DHT22;5193;51.032;6.356;2022-10-16T13:35:34;22.00;99.90
10296;DHT22;5193;51.032;6.356;2022-10-16T13:38:24;22.10;99.90
10296;DHT22;5193;51.032;6.356;2022-10-16T13:40:56;22.20;99.90
10296;DHT22;5193;51.032;6.356;2022-10-16T13:46:05;22.10;99.90
10296;DHT22;5193;51.032;6.356;2022-10-16T13:48:32;22.00;99.90
10296;DHT22;5193;51.032;6.356;2022-10-16T13:51:05;22.00;99.90
10296;DHT22;5193;51.032;6.356;2022-10-16T13:53:33;21.90;99.90
10296;DHT22;5193;51.032;6.356;2022-10-16T13:55:59;21.90;99.90
10296;DHT22;5193;51.032;6.356;2022-10-16T13:58:26;21.90;99.90
10296;DHT22;5193;51.032;6.356;2022-10-16T14:01:02;21.90;99.90
10296;DHT22;5193;51.032;6.356;2022-10-16T14:03:28;21.90;99.90
10296;DHT22;5193;51.032;6.356;2022-10-16T14:06:00;21.80;99.90
10296;DHT22;5193;51.032;6.356;2022-10-16T14:08:28;21.80;99.90
10296;DHT22;5193;51.032;6.356;2022-10-16T14:10:57;21.80;99.90
10296;DHT22;5193;51.032;6.356;2022-10-16T14:13:45;21.70;99.90
10296;DHT22;5193;51.032;6.356;2022-10-16T14:16:17;21.80;99.90
10296;DHT22;5193;51.032;6.356;2022-10-16T14:18:49;21.70;99.90
10296;DHT22;5193;51.032;6.356;2022-10-16T14:21:17;21.60;99.90
10296;DHT22;5193;51.032;6.356;2022-10-16T14:23:43;21.50;99.90
10296;DHT22;5193;51.032;6.356;2022-10-16T14:28:38;21.20;99.90
10296;DHT22;5193;51.032;6.356;2022-10-16T14:31:31;21.10;99.90
10296;DHT22;5193;51.032;6.356;2022-10-16T14:33:57;21.10;99.90
10296;DHT22;5193;51.032;6.356;2022-10-16T14:36:23;21.00;99.90
10296;DHT22;5193;51.032;6.356;2022-10-16T14:39:14;21.10;99.90
10296;DHT22;5193;51.032;6.356;2022-10-16T14:41:46;21.10;99.90
10296;DHT22;5193;51.032;6.356;2022-10-16T14:44:12;21.10;99.90
10296;DHT22;5193;51.032;6.356;2022-10-16T14:46:40;20.90;99.90
10296;DHT22;5193;51.032;6.356;2022-10-16T14:51:39;20.70;99.90
10296;DHT22;5193;51.032;6.356;2022-10-16T14:54:14;20.60;99.90
10296;DHT22;5193;51.032;6.356;2022-10-16T14:56:47;20.50;99.90
10296;DHT22;5193;51.032;6.356;2022-10-16T14:59:19;20.40;99.90
10296;DHT22;5193;51.032;6.356;2022-10-16T15:01:47;20.40;99.90
10296;DHT22;5193;51.032;6.356;2022-10-16T15:04:13;20.30;99.90
10296;DHT22;5193;51.032;6.356;2022-10-16T15:06:39;20.20;99.90
10296;DHT22;5193;51.032;6.356;2022-10-16T15:09:05;20.20;99.90
10296;DHT22;5193;51.032;6.356;2022-10-16T15:11:32;20.20;99.90
10296;DHT22;5193;51.032;6.356;2022-10-16T15:13:58;20.20;99.90
10296;DHT22;5193;51.032;6.356;2022-10-16T15:16:24;20.20;99.90
10296;DHT22;5193;51.032;6.356;2022-10-16T15:18:49;20.30;99.90
10296;DHT22;5193;51.032;6.356;2022-10-16T15:21:25;20.20;99.90
10296;DHT22;5193;51.032;6.356;2022-10-16T15:23:52;20.20;99.90
10296;DHT22;5193;51.032;6.356;2022-10-16T15:26:18;20.20;99.90
10296;DHT22;5193;51.032;6.356;2022-10-16T15:28:43;20.10;99.90
10296;DHT22;5193;51.032;6.356;2022-10-16T15:31:09;20.10;99.90
10296;DHT22;5193;51.032;6.356;2022-10-16T15:33:34;20.00;99.90
10296;DHT22;5193;51.032;6.356;2022-10-16T15:36:01;20.00;99.90
10296;DHT22;5193;51.032;6.356;2022-10-16T15:38:28;19.90;99.90
10296;DHT22;5193;51.032;6.356;2022-10-16T15:40:55;19.90;99.90
10296;DHT22;5193;51.032;6.356;2022-10-16T15:43:20;19.80;99.90
10296;DHT22;5193;51.032;6.356;2022-10-16T15:45:59;19.70;99.90
10296;DHT22;5193;51.032;6.356;2022-10-16T15:48:26;19.70;99.90
10296;DHT22;5193;51.032;6.356;2022-10-16T15:50:52;19.70;99.90
10296;DHT22;5193;51.032;6.356;2022-10-16T15:53:17;19.60;99.90
10296;DHT22;5193;51.032;6.356;2022-10-16T15:55:43;19.60;99.90
10296;DHT22;5193;51.032;6.356;2022-10-16T15:58:08;19.50;99.90
10296;DHT22;5193;51.032;6.356;2022-10-16T16:00:34;19.40;99.90
10296;DHT22;5193;51.032;6.356;2022-10-16T16:02:59;19.40;99.90
10296;DHT22;5193;51.032;6.356;2022-10-16T16:05:25;19.30;99.90
10296;DHT22;5193;51.032;6.356;2022-10-16T16:07:52;19.20;99.90
10296;DHT22;5193;51.032;6.356;2022-10-16T16:10:18;19.10;99.90
10296;DHT22;5193;51.032;6.356;2022-10-16T16:12:47;19.10;99.90
10296;DHT22;5193;51.032;6.356;2022-10-16T16:15:17;19.10;99.90
10296;DHT22;5193;51.032;6.356;2022-10-16T16:17:42;19.00;99.90
10296;DHT22;5193;51.032;6.356;2022-10-16T16:20:10;18.90;99.90
10296;DHT22;5193;51.032;6.356;2022-10-16T16:22:35;18.90;99.90
10296;DHT22;5193;51.032;6.356;2022-10-16T16:25:01;18.80;99.90
10296;DHT22;5193;51.032;6.356;2022-10-16T16:27:27;18.70;99.90
10296;DHT22;5193;51.032;6.356;2022-10-16T16:29:55;18.70;99.90
10296;DHT22;5193;51.032;6.356;2022-10-16T16:32:20;18.60;99.90
10296;DHT22;5193;51.032;6.356;2022-10-16T16:34:46;18.50;99.90
10296;DHT22;5193;51.032;6.356;2022-10-16T16:37:12;18.50;99.90
10296;DHT22;5193;51.032;6.356;2022-10-16T16:39:37;18.40;99.90
10296;DHT22;5193;51.032;6.356;2022-10-16T16:42:03;18.30;99.90
10296;DHT22;5193;51.032;6.356;2022-10-16T16:44:29;18.30;99.90
10296;DHT22;5193;51.032;6.356;2022-10-16T16:46:55;18.30;99.90
10296;DHT22;5193;51.032;6.356;2022-10-16T16:49:20;18.20;99.90
10296;DHT22;5193;51.032;6.356;2022-10-16T16:51:46;18.10;99.90
10296;DHT22;5193;51.032;6.356;2022-10-16T16:54:12;18.00;99.90
10296;DHT22;5193;51.032;6.356;2022-10-16T16:56:39;18.00;99.90
10296;DHT22;5193;51.032;6.356;2022-10-16T16:59:15;17.90;99.90
10296;DHT22;5193;51.032;6.356;2022-10-16T17:01:42;17.90;99.90
10296;DHT22;5193;51.032;6.356;2022-10-16T17:04:07;17.90;99.90
10296;DHT22;5193;51.032;6.356;2022-10-16T17:06:33;17.80;99.90
10296;DHT22;5193;51.032;6.356;2022-10-16T17:09:01;17.80;99.90
10296;DHT22;5193;51.032;6.356;2022-10-16T17:11:28;17.70;99.90
10296;DHT22;5193;51.032;6.356;2022-10-16T17:13:55;17.70;99.90
10296;DHT22;5193;51.032;6.356;2022-10-16T17:16:26;17.60;99.90
10296;DHT22;5193;51.032;6.356;2022-10-16T17:18:52;17.60;99.90
10296;DHT22;5193;51.032;6.356;2022-10-16T17:21:18;17.50;99.90
10296;DHT22;5193;51.032;6.356;2022-10-16T17:23:44;17.50;99.90
10296;DHT22;5193;51.032;6.356;2022-10-16T17:26:15;17.40;99.90
10296;DHT22;5193;51.032;6.356;2022-10-16T17:28:42;17.40;99.90
10296;DHT22;5193;51.032;6.356;2022-10-16T17:33:34;17.30;99.90
10296;DHT22;5193;51.032;6.356;2022-10-16T17:36:00;17.20;99.90
10296;DHT22;5193;51.032;6.356;2022-10-16T17:38:25;17.30;99.90
10296;DHT22;5193;51.032;6.356;2022-10-16T17:40:51;17.20;99.90
10296;DHT22;5193;51.032;6.356;2022-10-16T17:43:17;17.20;99.90
10296;DHT22;5193;51.032;6.356;2022-10-16T17:45:43;17.20;99.90
10296;DHT22;5193;51.032;6.356;2022-10-16T17:48:08;17.10;99.90
10296;DHT22;5193;51.032;6.356;2022-10-16T17:50:34;17.10;99.90
10296;DHT22;5193;51.032;6.356;2022-10-16T17:53:03;17.10;99.90
10296;DHT22;5193;51.032;6.356;2022-10-16T17:55:29;17.00;99.90
10296;DHT22;5193;51.032;6.356;2022-10-16T17:57:54;17.10;99.90
10296;DHT22;5193;51.032;6.356;2022-10-16T18:00:21;17.00;99.90
10296;DHT22;5193;51.032;6.356;2022-10-16T18:02:50;17.10;99.90
10296;DHT22;5193;51.032;6.356;2022-10-16T18:05:15;17.00;99.90
10296;DHT22;5193;51.032;6.356;2022-10-16T18:07:41;17.00;99.90